Time;durP1;ratioP1;P1;durP2;ratioP2;P2;SDS_P1;SDS_P2;PMS_P1;PMS_P2;Temp;Humidity;BMP_temperature;BMP_pressure;BME280_temperature;BME280_humidity;BME280_pressure;Samples;Min_cycle;Max_cycle;Signal;HPM_P1;HPM_P2
2021/09/08 00:00:49;;;;;;;16.17;11.70;;;19.70;1.00;;;;;;4997702;28;20230;-51
2021/09/08 00:03:16;;;;;;;14.30;10.47;;;19.70;1.00;;;;;;4999620;28;20625;-51
2021/09/08 00:05:43;;;;;;;16.03;10.50;;;19.70;99.90;;;;;;5002620;28;20305;-50
2021/09/08 00:08:10;;;;;;;15.63;11.07;;;19.70;1.00;;;;;;5008916;28;20307;-51
2021/09/08 00:10:36;;;;;;;15.37;11.07;;;19.70;1.00;;;;;;5002944;28;20280;-51
2021/09/08 00:13:04;;;;;;;15.17;10.57;;;19.60;1.00;;;;;;5005173;28;20279;-51
2021/09/08 00:15:30;;;;;;;14.57;10.53;;;19.70;1.00;;;;;;5000960;28;20256;-52
2021/09/08 00:17:58;;;;;;;16.77;11.57;;;19.70;99.90;;;;;;5003701;28;20289;-51
2021/09/08 00:20:24;;;;;;;14.67;11.20;;;19.60;1.00;;;;;;4998054;28;20765;-50
2021/09/08 00:22:51;;;;;;;15.37;11.57;;;19.60;50.70;;;;;;5005036;28;20677;-51
2021/09/08 00:25:18;;;;;;;15.70;11.57;;;19.60;1.00;;;;;;4998738;28;20706;-51
2021/09/08 00:27:45;;;;;;;15.57;10.90;;;19.50;1.00;;;;;;5000138;28;20288;-51
2021/09/08 00:30:13;;;;;;;14.23;11.17;;;19.50;1.00;;;;;;4999415;28;20376;-51
2021/09/08 00:32:40;;;;;;;18.63;11.30;;;19.50;1.00;;;;;;4994947;28;20340;-51
2021/09/08 00:35:07;;;;;;;16.93;11.77;;;19.40;99.90;;;;;;5001471;28;20725;-51
2021/09/08 00:37:39;;;;;;;15.40;11.47;;;19.50;20.00;;;;;;4993881;28;20280;-51
2021/09/08 00:40:08;;;;;;;16.10;10.97;;;19.40;1.00;;;;;;4999609;28;20647;-51
2021/09/08 00:42:35;;;;;;;15.83;10.77;;;19.40;99.90;;;;;;5001226;28;20300;-51
2021/09/08 00:45:03;;;;;;;15.73;11.63;;;19.40;99.90;;;;;;5001770;28;20671;-52
2021/09/08 00:47:30;;;;;;;15.00;10.43;;;19.50;99.90;;;;;;5001033;28;20197;-51
2021/09/08 00:49:57;;;;;;;13.33;10.27;;;19.40;1.00;;;;;;5001060;28;20296;-51
2021/09/08 00:52:24;;;;;;;16.53;10.50;;;19.40;1.00;;;;;;5001575;28;20320;-51
2021/09/08 00:54:51;;;;;;;17.10;11.27;;;19.40;1.00;;;;;;5001044;28;20288;-50
2021/09/08 00:57:20;;;;;;;14.17;10.83;;;19.30;99.90;;;;;;5003344;28;20290;-51
2021/09/08 00:59:48;;;;;;;17.73;11.07;;;19.30;1.00;;;;;;4999997;28;20212;-51
2021/09/08 01:02:14;;;;;;;15.03;11.43;;;19.20;1.00;;;;;;4998683;28;20341;-51
2021/09/08 01:04:41;;;;;;;16.80;10.77;;;19.20;1.00;;;;;;5001350;28;20209;-51
2021/09/08 01:07:09;;;;;;;15.17;10.43;;;19.10;99.90;;;;;;4998989;28;20301;-51
2021/09/08 01:09:37;;;;;;;16.20;11.53;;;19.10;1.00;;;;;;4999926;28;20201;-51
2021/09/08 01:12:05;;;;;;;15.13;10.33;;;19.10;1.00;;;;;;4998483;28;20247;-51
2021/09/08 01:14:33;;;;;;;14.67;11.30;;;19.10;1.00;;;;;;5002651;28;20197;-50
2021/09/08 01:17:00;;;;;;;16.50;11.47;;;19.00;99.90;;;;;;4989761;28;20239;-51
2021/09/08 01:19:28;;;;;;;14.77;11.43;;;19.10;1.00;;;;;;4994462;28;20221;-50
2021/09/08 01:21:55;;;;;;;16.03;10.50;;;19.10;1.00;;;;;;4993634;28;20190;-51
2021/09/08 01:24:23;;;;;;;15.23;10.83;;;19.10;1.00;;;;;;5002648;28;20232;-50
2021/09/08 01:26:53;;;;;;;15.63;10.73;;;19.10;99.90;;;;;;4995698;28;20236;-51
2021/09/08 01:29:20;;;;;;;13.87;10.53;;;19.00;1.00;;;;;;5000543;28;20236;-51
2021/09/08 01:31:58;;;;;;;15.63;11.70;;;19.00;1.00;;;;;;4998623;28;20268;-50
2021/09/08 01:34:27;;;;;;;13.13;10.20;;;19.00;99.90;;;;;;5002401;28;20236;-51
2021/09/08 01:36:54;;;;;;;15.93;10.77;;;19.00;1.00;;;;;;5000081;28;20249;-50
2021/09/08 01:39:21;;;;;;;15.50;11.43;;;19.00;1.00;;;;;;5001706;28;20300;-50
2021/09/08 01:41:49;;;;;;;16.77;11.17;;;19.00;1.00;;;;;;5001026;28;20217;-51
2021/09/08 01:44:18;;;;;;;15.47;11.33;;;19.00;1.00;;;;;;5002092;28;20246;-50
2021/09/08 01:46:45;;;;;;;14.37;11.23;;;18.90;14.60;;;;;;4997223;28;20233;-50
2021/09/08 01:49:12;;;;;;;19.93;11.80;;;18.90;99.90;;;;;;4999065;28;20292;-50
2021/09/08 01:51:39;;;;;;;16.00;11.60;;;18.80;1.00;;;;;;4998367;28;20312;-50
2021/09/08 01:54:06;;;;;;;18.50;12.10;;;18.80;1.00;;;;;;4997583;28;20741;-50
2021/09/08 01:56:33;;;;;;;17.17;12.20;;;18.80;99.90;;;;;;4995218;28;20313;-50
2021/09/08 01:59:00;;;;;;;18.33;11.80;;;18.70;1.00;;;;;;4993571;28;20740;-50
2021/09/08 02:01:27;;;;;;;16.50;11.07;;;18.70;1.00;;;;;;5002033;28;20594;-50
2021/09/08 02:03:54;;;;;;;13.90;10.57;;;18.70;1.00;;;;;;4997832;28;20208;-51
2021/09/08 02:06:27;;;;;;;15.63;11.53;;;18.70;1.00;;;;;;4998306;28;20315;-50
2021/09/08 02:08:59;;;;;;;14.50;11.13;;;18.70;1.00;;;;;;4998106;28;20665;-50
2021/09/08 02:11:27;;;;;;;17.20;11.83;;;18.70;1.00;;;;;;4998938;28;20340;-50
2021/09/08 02:13:54;;;;;;;15.77;11.87;;;18.70;1.00;;;;;;5001117;28;20221;-50
2021/09/08 02:16:21;;;;;;;17.37;12.37;;;18.60;1.00;;;;;;4997911;28;20332;-51
2021/09/08 02:18:50;;;;;;;17.67;12.03;;;18.50;1.00;;;;;;4994812;28;20235;-51
2021/09/08 02:21:17;;;;;;;16.90;11.43;;;18.50;1.00;;;;;;4999113;28;20262;-50
2021/09/08 02:23:44;;;;;;;16.80;11.47;;;18.40;1.00;;;;;;4996919;28;20295;-50
2021/09/08 02:26:11;;;;;;;14.83;11.27;;;18.50;1.00;;;;;;4999881;28;20201;-51
2021/09/08 02:28:38;;;;;;;15.77;11.37;;;18.50;1.00;;;;;;4995807;28;20252;-51
2021/09/08 02:31:05;;;;;;;14.13;10.90;;;18.50;18.40;;;;;;4999695;28;20764;-51
2021/09/08 02:33:32;;;;;;;19.77;11.93;;;18.50;1.00;;;;;;4996394;28;20713;-50
2021/09/08 02:35:59;;;;;;;15.87;11.37;;;18.50;1.00;;;;;;4990504;28;20221;-50
2021/09/08 02:38:27;;;;;;;16.23;11.37;;;18.40;1.00;;;;;;5002664;28;20629;-50
2021/09/08 02:40:54;;;;;;;17.73;12.73;;;18.50;1.00;;;;;;5000103;28;20267;-50
2021/09/08 02:43:21;;;;;;;15.23;11.50;;;18.40;30.00;;;;;;4997067;28;20296;-50
2021/09/08 02:45:47;;;;;;;20.37;12.17;;;18.40;1.00;;;;;;5004656;28;20232;-50
2021/09/08 02:48:14;;;;;;;18.73;12.70;;;18.40;36.00;;;;;;4998182;28;20293;-50
2021/09/08 02:50:41;;;;;;;18.47;13.17;;;18.30;99.90;;;;;;4996504;28;20233;-51
2021/09/08 02:53:08;;;;;;;17.80;12.87;;;18.30;99.90;;;;;;4999451;28;20571;-51
2021/09/08 02:55:34;;;;;;;18.60;12.93;;;18.20;1.00;;;;;;4998211;28;20293;-51
2021/09/08 02:58:01;;;;;;;18.13;12.40;;;18.30;1.00;;;;;;5004997;28;20284;-51
2021/09/08 03:00:28;;;;;;;17.60;11.77;;;18.20;1.00;;;;;;4997998;28;20769;-51
2021/09/08 03:02:55;;;;;;;18.30;12.30;;;18.20;1.00;;;;;;5000814;28;20212;-50
2021/09/08 03:05:22;;;;;;;16.57;11.97;;;18.20;1.00;;;;;;5010410;28;20233;-51
2021/09/08 03:07:49;;;;;;;18.23;12.73;;;18.20;1.00;;;;;;5000983;28;20202;-51
2021/09/08 03:10:16;;;;;;;17.47;12.37;;;18.20;1.00;;;;;;4995613;28;20746;-51
2021/09/08 03:12:43;;;;;;;19.10;12.67;;;18.20;1.00;;;;;;5017717;28;20370;-51
2021/09/08 03:15:10;;;;;;;18.90;12.67;;;18.10;1.00;;;;;;5000757;28;20233;-51
2021/09/08 03:17:38;;;;;;;17.10;11.87;;;18.10;1.00;;;;;;5004314;28;20210;-51
2021/09/08 03:20:06;;;;;;;16.80;12.23;;;18.10;1.00;;;;;;4996590;28;20218;-51
2021/09/08 03:22:33;;;;;;;20.47;12.87;;;18.00;1.00;;;;;;4998465;28;20205;-50
2021/09/08 03:25:00;;;;;;;18.07;12.90;;;18.00;1.00;;;;;;5000487;28;20220;-50
2021/09/08 03:27:26;;;;;;;16.53;12.87;;;17.90;1.00;;;;;;5003331;28;20276;-50
2021/09/08 03:29:53;;;;;;;19.00;13.17;;;18.00;1.00;;;;;;5000355;28;20249;-51
2021/09/08 03:32:20;;;;;;;16.40;12.07;;;18.10;1.00;;;;;;5003462;28;20217;-50
2021/09/08 03:34:47;;;;;;;18.63;12.90;;;18.00;1.00;;;;;;4999880;28;20198;-50
2021/09/08 03:37:14;;;;;;;16.07;12.13;;;18.00;1.00;;;;;;5006259;28;20745;-51
2021/09/08 03:39:41;;;;;;;18.50;12.90;;;18.00;1.00;;;;;;5000641;28;20258;-51
2021/09/08 03:42:08;;;;;;;18.57;13.23;;;17.90;1.00;;;;;;4999817;28;20225;-51
2021/09/08 03:44:34;;;;;;;19.47;13.20;;;17.80;1.00;;;;;;5000525;28;20202;-51
2021/09/08 03:47:01;;;;;;;19.43;13.43;;;17.90;1.00;;;;;;5000232;28;20295;-51
2021/09/08 03:49:28;;;;;;;18.10;13.47;;;17.90;1.00;;;;;;5002082;28;20298;-50
2021/09/08 03:51:55;;;;;;;18.70;12.80;;;17.80;1.00;;;;;;5003559;28;20316;-51
2021/09/08 03:54:22;;;;;;;17.97;13.37;;;17.80;1.00;;;;;;5004375;28;20271;-51
2021/09/08 03:56:48;;;;;;;18.13;12.97;;;17.90;1.00;;;;;;5001634;28;20258;-51
2021/09/08 03:59:15;;;;;;;18.97;13.87;;;17.90;1.00;;;;;;5000117;28;20289;-50
2021/09/08 04:01:43;;;;;;;17.20;12.80;;;17.80;1.00;;;;;;5002784;28;20927;-51
2021/09/08 04:04:10;;;;;;;19.93;13.93;;;17.90;1.00;;;;;;4997996;28;20248;-50
2021/09/08 04:06:37;;;;;;;19.97;14.43;;;17.90;1.00;;;;;;4998708;28;20642;-50
2021/09/08 04:09:06;;;;;;;19.40;13.27;;;17.80;1.00;;;;;;5002058;28;20214;-51
2021/09/08 04:11:33;;;;;;;20.03;14.10;;;17.80;1.00;;;;;;5002890;28;20311;-51
2021/09/08 04:14:00;;;;;;;18.67;12.90;;;17.70;1.00;;;;;;5000046;28;20326;-51
2021/09/08 04:16:27;;;;;;;18.20;13.83;;;17.70;1.00;;;;;;5001771;28;20795;-51
2021/09/08 04:18:53;;;;;;;22.40;13.43;;;17.70;1.00;;;;;;5005449;28;20225;-51
2021/09/08 04:21:20;;;;;;;18.47;12.67;;;17.70;1.00;;;;;;5000932;28;20304;-51
2021/09/08 04:23:47;;;;;;;20.47;14.47;;;17.60;1.00;;;;;;5002737;28;20314;-51
2021/09/08 04:26:14;;;;;;;18.47;13.70;;;17.70;1.00;;;;;;4998046;28;20717;-50
2021/09/08 04:28:40;;;;;;;21.27;14.10;;;17.70;1.00;;;;;;5004390;28;20507;-51
2021/09/08 04:31:07;;;;;;;20.17;13.47;;;17.60;1.00;;;;;;4999059;28;20240;-51
2021/09/08 04:33:34;;;;;;;20.03;14.20;;;17.60;1.00;;;;;;4998125;28;20246;-51
2021/09/08 04:36:01;;;;;;;22.73;14.57;;;17.60;1.00;;;;;;5002037;28;20299;-51
2021/09/08 04:38:28;;;;;;;19.93;14.20;;;17.60;1.00;;;;;;4999351;28;20680;-51
2021/09/08 04:40:55;;;;;;;20.93;14.10;;;17.60;1.00;;;;;;4999988;28;20301;-51
2021/09/08 04:43:22;;;;;;;18.83;14.00;;;17.60;1.00;;;;;;5001533;28;20213;-51
2021/09/08 04:45:49;;;;;;;18.67;13.10;;;17.60;1.00;;;;;;5001472;28;20681;-50
2021/09/08 04:48:16;;;;;;;18.80;13.63;;;17.60;1.00;;;;;;5000425;28;20772;-51
2021/09/08 04:50:43;;;;;;;17.30;12.73;;;17.60;1.00;;;;;;4996994;28;20297;-51
2021/09/08 04:53:10;;;;;;;20.73;13.47;;;17.50;1.00;;;;;;5001579;28;20332;-50
2021/09/08 04:55:36;;;;;;;22.53;13.77;;;17.50;1.00;;;;;;5002071;28;20326;-50
2021/09/08 04:58:03;;;;;;;18.83;14.37;;;17.50;1.00;;;;;;4995100;28;20219;-51
2021/09/08 05:00:30;;;;;;;18.93;13.90;;;17.50;1.00;;;;;;4998013;28;20337;-51
2021/09/08 05:02:57;;;;;;;21.17;14.47;;;17.40;1.00;;;;;;4995331;28;20226;-51
2021/09/08 05:05:24;;;;;;;19.30;14.07;;;17.40;1.00;;;;;;5001918;28;20356;-50
2021/09/08 05:07:51;;;;;;;19.10;13.77;;;17.40;1.00;;;;;;5000529;28;20214;-51
2021/09/08 05:10:18;;;;;;;21.60;14.73;;;17.40;7.50;;;;;;4997442;28;20311;-51
2021/09/08 05:12:45;;;;;;;21.03;14.73;;;17.40;1.00;;;;;;5001525;28;20674;-50
2021/09/08 05:15:11;;;;;;;20.90;13.87;;;17.30;4.00;;;;;;4991404;28;20202;-50
2021/09/08 05:17:38;;;;;;;19.73;14.33;;;17.40;18.20;;;;;;4993970;28;20296;-50
2021/09/08 05:20:06;;;;;;;19.50;14.23;;;17.40;4.50;;;;;;5001102;28;20331;-50
2021/09/08 05:22:33;;;;;;;19.00;13.67;;;17.40;1.00;;;;;;4998290;28;20248;-51
2021/09/08 05:25:00;;;;;;;20.80;14.07;;;17.30;31.60;;;;;;4996693;28;20313;-50
2021/09/08 05:27:27;;;;;;;22.77;13.63;;;17.40;27.10;;;;;;4998062;28;20288;-51
2021/09/08 05:29:54;;;;;;;24.63;15.00;;;17.40;8.20;;;;;;5002563;28;20294;-51
2021/09/08 05:32:21;;;;;;;21.93;14.83;;;17.40;8.40;;;;;;4994982;28;20232;-50
2021/09/08 05:34:47;;;;;;;27.07;15.67;;;17.30;26.50;;;;;;5001826;28;20302;-51
2021/09/08 05:37:14;;;;;;;18.63;14.00;;;17.30;36.00;;;;;;5006017;28;20229;-51
2021/09/08 05:39:41;;;;;;;23.10;14.03;;;17.30;49.80;;;;;;5003057;28;20292;-51
2021/09/08 05:42:08;;;;;;;23.27;14.70;;;17.40;30.80;;;;;;5004038;28;20289;-52
2021/09/08 05:44:34;;;;;;;21.40;13.90;;;17.40;1.00;;;;;;4998227;28;20669;-50
2021/09/08 05:47:01;;;;;;;22.57;15.13;;;17.40;1.00;;;;;;5005331;28;20292;-51
2021/09/08 05:49:28;;;;;;;19.67;14.53;;;17.40;1.00;;;;;;4993050;28;20682;-51
2021/09/08 05:51:55;;;;;;;21.10;14.17;;;17.40;1.00;;;;;;5004772;28;20299;-51
2021/09/08 05:54:21;;;;;;;23.60;15.67;;;17.40;1.00;;;;;;5002089;28;20304;-51
2021/09/08 05:56:48;;;;;;;21.03;15.17;;;17.40;1.00;;;;;;5002075;28;20205;-51
2021/09/08 05:59:15;;;;;;;21.70;14.80;;;17.50;1.00;;;;;;5006346;28;20292;-51
2021/09/08 06:01:42;;;;;;;23.93;16.10;;;17.40;5.80;;;;;;4998949;28;20268;-51
2021/09/08 06:04:09;;;;;;;26.57;16.43;;;17.50;1.00;;;;;;5005727;28;20652;-51
2021/09/08 06:06:36;;;;;;;24.77;15.83;;;17.50;3.70;;;;;;5004859;28;20230;-50
2021/09/08 06:09:03;;;;;;;23.33;15.13;;;17.50;1.30;;;;;;5002010;28;20212;-50
2021/09/08 06:11:30;;;;;;;21.27;15.60;;;17.50;7.10;;;;;;4997972;28;20724;-53
2021/09/08 06:13:57;;;;;;;17.60;13.17;;;17.50;1.00;;;;;;5002447;28;20311;-51
2021/09/08 06:16:23;;;;;;;21.17;15.63;;;17.60;1.00;;;;;;5005438;28;20224;-50
2021/09/08 06:18:50;;;;;;;19.97;14.43;;;17.50;10.20;;;;;;4990524;28;20668;-50
2021/09/08 06:21:18;;;;;;;20.63;15.43;;;17.50;1.00;;;;;;4993988;28;20319;-50
2021/09/08 06:23:45;;;;;;;20.77;15.27;;;17.60;1.00;;;;;;4992291;28;20276;-51
2021/09/08 06:26:11;;;;;;;22.43;14.93;;;17.60;1.00;;;;;;4996146;28;20273;-53
2021/09/08 06:28:38;;;;;;;21.73;15.40;;;17.70;1.00;;;;;;5000442;28;20197;-51
2021/09/08 06:31:05;;;;;;;20.43;15.17;;;17.80;1.00;;;;;;4998599;28;20313;-50
2021/09/08 06:33:32;;;;;;;20.33;14.53;;;17.80;1.00;;;;;;4993277;28;20260;-50
2021/09/08 06:35:59;;;;;;;20.10;15.23;;;17.90;1.00;;;;;;4999273;28;20201;-50
2021/09/08 06:38:25;;;;;;;21.03;14.57;;;17.90;1.00;;;;;;4995880;28;20239;-50
2021/09/08 06:40:55;;;;;;;20.90;15.20;;;18.00;1.00;;;;;;4996346;28;20236;-51
2021/09/08 06:43:22;;;;;;;23.60;15.40;;;18.10;1.00;;;;;;4996064;28;20225;-51
2021/09/08 06:45:48;;;;;;;20.43;14.87;;;18.10;1.00;;;;;;4998194;28;20637;-50
2021/09/08 06:48:15;;;;;;;21.80;15.30;;;18.20;1.00;;;;;;4996009;28;20626;-51
2021/09/08 06:50:42;;;;;;;22.53;14.87;;;18.30;1.00;;;;;;5000160;28;20290;-51
2021/09/08 06:53:09;;;;;;;21.87;14.90;;;18.40;1.00;;;;;;4997190;28;20658;-51
2021/09/08 06:55:35;;;;;;;19.03;13.70;;;18.40;1.00;;;;;;4990029;28;20193;-52
2021/09/08 06:58:02;;;;;;;20.27;15.50;;;18.50;1.00;;;;;;4995155;28;20705;-51
2021/09/08 07:00:29;;;;;;;22.53;15.23;;;18.60;1.00;;;;;;4998818;28;20235;-51
2021/09/08 07:02:56;;;;;;;21.47;14.57;;;18.70;1.00;;;;;;4998710;28;20193;-52
2021/09/08 07:05:24;;;;;;;20.60;14.97;;;18.80;99.90;;;;;;4998064;28;20292;-51
2021/09/08 07:07:51;;;;;;;19.83;15.00;;;18.80;1.00;;;;;;5006243;28;20201;-52
2021/09/08 07:10:18;;;;;;;23.67;14.83;;;19.00;99.90;;;;;;5001850;28;20322;-51
2021/09/08 07:12:45;;;;;;;19.57;14.03;;;19.00;99.90;;;;;;5004690;28;20647;-51
2021/09/08 07:15:12;;;;;;;20.13;14.13;;;19.00;99.90;;;;;;5002159;28;20607;-51
2021/09/08 07:17:39;;;;;;;20.17;14.80;;;19.10;99.90;;;;;;5003638;28;20297;-50
2021/09/08 07:20:07;;;;;;;19.67;14.23;;;19.20;99.90;;;;;;5011259;28;20299;-51
2021/09/08 07:22:33;;;;;;;20.30;15.50;;;19.30;1.00;;;;;;4998901;28;20646;-50
2021/09/08 07:25:01;;;;;;;22.07;14.80;;;19.30;48.20;;;;;;5005531;28;20201;-51
2021/09/08 07:27:27;;;;;;;21.80;14.50;;;19.50;1.00;;;;;;5004518;28;20293;-51
2021/09/08 07:29:54;;;;;;;25.60;15.67;;;19.40;1.00;;;;;;5006674;28;20371;-51
2021/09/08 07:32:21;;;;;;;24.70;15.43;;;19.40;99.90;;;;;;4997078;28;20287;-51
2021/09/08 07:34:48;;;;;;;22.43;15.30;;;19.40;1.00;;;;;;5001730;28;20242;-51
2021/09/08 07:37:16;;;;;;;26.57;14.90;;;19.50;1.00;;;;;;5001961;28;20310;-52
2021/09/08 07:39:43;;;;;;;22.70;15.00;;;19.60;1.00;;;;;;4998017;28;20288;-51
2021/09/08 07:42:10;;;;;;;21.13;14.17;;;19.80;79.90;;;;;;5004853;28;20527;-52
2021/09/08 07:44:36;;;;;;;22.17;15.43;;;19.90;1.00;;;;;;4996594;28;20229;-51
2021/09/08 07:47:03;;;;;;;22.13;14.73;;;20.00;99.90;;;;;;5000118;28;20233;-51
2021/09/08 07:49:30;;;;;;;16.53;12.40;;;20.00;1.00;;;;;;5000379;28;20226;-51
2021/09/08 07:51:57;;;;;;;17.97;13.63;;;20.30;1.00;;;;;;5004400;28;20198;-51
2021/09/08 07:54:24;;;;;;;20.07;15.00;;;20.40;99.90;;;;;;5001799;28;20284;-51
2021/09/08 07:56:51;;;;;;;21.53;14.77;;;20.60;99.90;;;;;;4996984;28;20233;-51
2021/09/08 07:59:18;;;;;;;22.43;14.23;;;20.60;99.90;;;;;;4997048;28;20236;-52
2021/09/08 08:01:44;;;;;;;20.50;13.87;;;20.70;1.00;;;;;;5000757;28;20253;-51
2021/09/08 08:04:12;;;;;;;19.57;14.33;;;20.80;1.00;;;;;;4999035;28;20202;-51
2021/09/08 08:06:39;;;;;;;19.57;14.13;;;20.70;1.00;;;;;;5000164;28;21101;-52
2021/09/08 08:09:06;;;;;;;20.03;14.60;;;20.80;99.90;;;;;;5001216;28;20289;-51
2021/09/08 08:11:34;;;;;;;21.33;14.40;;;21.00;99.90;;;;;;5000519;28;20704;-51
2021/09/08 08:14:01;;;;;;;22.77;14.37;;;21.30;1.00;;;;;;4997135;28;20197;-52
2021/09/08 08:16:32;;;;;;;21.13;13.17;;;21.40;1.00;;;;;;5001118;28;20281;-51
2021/09/08 08:18:59;;;;;;;20.17;14.67;;;21.40;99.90;;;;;;4997804;28;20210;-51
2021/09/08 08:21:26;;;;;;;19.57;14.73;;;21.40;1.00;;;;;;5000196;28;20265;-51
2021/09/08 08:23:53;;;;;;;19.40;13.97;;;21.40;1.00;;;;;;4997347;28;20291;-52
2021/09/08 08:26:22;;;;;;;17.63;13.53;;;21.70;1.00;;;;;;5000783;28;20285;-51
2021/09/08 08:28:51;;;;;;;21.97;14.50;;;21.80;1.00;;;;;;5001144;28;20194;-52
2021/09/08 08:31:18;;;;;;;17.90;13.77;;;21.90;1.00;;;;;;4995655;28;20401;-52
2021/09/08 08:33:48;;;;;;;17.93;13.13;;;21.90;99.90;;;;;;5005557;28;20243;-51
2021/09/08 08:36:16;;;;;;;17.27;12.00;;;22.30;1.00;;;;;;4995753;28;20407;-51
2021/09/08 08:38:44;;;;;;;18.17;12.87;;;22.40;1.00;;;;;;5000003;28;20233;-52
2021/09/08 08:41:11;;;;;;;18.47;14.10;;;22.80;1.00;;;;;;5001147;28;20220;-52
2021/09/08 08:43:38;;;;;;;19.17;13.50;;;23.00;99.90;;;;;;4997577;28;20198;-51
2021/09/08 08:46:06;;;;;;;18.70;12.77;;;23.20;1.00;;;;;;4996463;28;20315;-51
2021/09/08 08:48:34;;;;;;;16.33;12.27;;;23.20;1.00;;;;;;4998463;28;20482;-51
2021/09/08 08:51:00;;;;;;;21.53;13.77;;;23.40;1.00;;;;;;4997908;28;20209;-51
2021/09/08 08:53:27;;;;;;;17.07;12.10;;;23.50;1.00;;;;;;4998399;28;20244;-51
2021/09/08 08:55:54;;;;;;;23.30;13.67;;;23.90;1.00;;;;;;5001941;28;20305;-51
2021/09/08 08:58:21;;;;;;;20.37;13.60;;;23.60;48.90;;;;;;4996735;28;20203;-51
2021/09/08 09:00:48;;;;;;;18.77;12.87;;;23.90;1.00;;;;;;5001325;28;20308;-51
2021/09/08 09:03:25;;;;;;;17.63;12.50;;;24.20;99.90;;;;;;4993642;28;20864;-51
2021/09/08 09:06:03;;;;;;;18.73;12.97;;;24.10;1.00;;;;;;4995065;28;20374;-51
2021/09/08 09:08:34;;;;;;;22.20;13.67;;;24.20;99.90;;;;;;5001860;28;20281;-51
2021/09/08 09:11:02;;;;;;;16.10;12.50;;;24.30;1.00;;;;;;4995898;28;20312;-51
2021/09/08 09:13:34;;;;;;;19.13;13.20;;;24.50;70.20;;;;;;5000433;28;20265;-51
2021/09/08 09:16:09;;;;;;;16.63;12.57;;;24.70;1.00;;;;;;5001167;28;20197;-52
2021/09/08 09:18:43;;;;;;;19.00;13.17;;;24.50;1.00;;;;;;4994544;28;20211;-51
2021/09/08 09:21:12;;;;;;;25.57;14.00;;;24.40;1.00;;;;;;4995108;28;20259;-51
2021/09/08 09:23:47;;;;;;;19.83;13.60;;;24.40;1.00;;;;;;4995761;28;20214;-52
2021/09/08 09:26:20;;;;;;;18.23;13.57;;;24.40;1.00;;;;;;4998111;28;20322;-51
2021/09/08 09:28:47;;;;;;;21.37;13.27;;;24.60;1.00;;;;;;4996846;28;20225;-52
2021/09/08 09:31:22;;;;;;;21.67;13.13;;;24.80;1.00;;;;;;4991145;28;20264;-51
2021/09/08 09:33:57;;;;;;;16.87;12.13;;;24.70;1.00;;;;;;5000307;28;20205;-52
2021/09/08 09:36:31;;;;;;;19.07;13.57;;;25.20;1.00;;;;;;4997076;28;20232;-52
2021/09/08 09:38:58;;;;;;;20.73;14.90;;;25.10;99.90;;;;;;5002745;28;20465;-52
2021/09/08 09:41:32;;;;;;;21.73;15.30;;;24.90;1.00;;;;;;4998041;28;20255;-52
2021/09/08 09:44:08;;;;;;;20.27;14.30;;;24.60;1.00;;;;;;5001606;28;20232;-52
2021/09/08 09:46:38;;;;;;;19.67;14.03;;;25.00;1.00;;;;;;4998120;28;20333;-51
2021/09/08 09:49:05;;;;;;;18.37;13.13;;;24.90;1.00;;;;;;4998461;28;20205;-51
2021/09/08 09:51:32;;;;;;;15.37;11.60;;;25.20;1.00;;;;;;4999805;28;20307;-52
2021/09/08 09:53:59;;;;;;;21.10;14.77;;;25.20;1.00;;;;;;5001377;28;20208;-51
2021/09/08 09:56:26;;;;;;;22.63;14.23;;;25.20;99.90;;;;;;4992219;28;20291;-52
2021/09/08 09:58:52;;;;;;;22.13;14.83;;;24.90;1.00;;;;;;5000462;28;20288;-52
2021/09/08 10:01:20;;;;;;;19.60;15.43;;;24.80;1.00;;;;;;5002872;28;20310;-52
2021/09/08 10:03:47;;;;;;;19.70;13.83;;;24.60;1.00;;;;;;4996599;28;20205;-51
2021/09/08 10:06:17;;;;;;;19.53;13.80;;;24.80;1.00;;;;;;4993528;28;20206;-51
2021/09/08 10:08:49;;;;;;;17.93;14.13;;;24.80;1.00;;;;;;4996484;28;20642;-52
2021/09/08 10:11:24;;;;;;;23.30;14.90;;;24.90;1.00;;;;;;4997083;28;20209;-52
2021/09/08 10:14:02;;;;;;;20.37;14.63;;;24.90;1.00;;;;;;5003429;28;20199;-52
2021/09/08 10:16:29;;;;;;;22.27;13.80;;;24.70;1.00;;;;;;4991745;28;20285;-51
2021/09/08 10:18:55;;;;;;;19.80;14.37;;;24.80;1.00;;;;;;5000584;28;20214;-51
2021/09/08 10:21:22;;;;;;;20.63;14.27;;;25.00;1.00;;;;;;4999784;28;20303;-52
2021/09/08 10:23:56;;;;;;;23.30;15.40;;;24.70;1.00;;;;;;4992809;28;20210;-51
2021/09/08 10:26:30;;;;;;;21.67;15.17;;;24.70;1.00;;;;;;4997863;28;20208;-51
2021/09/08 10:29:08;;;;;;;20.17;14.63;;;24.50;1.00;;;;;;4995013;28;20280;-51
2021/09/08 10:31:47;;;;;;;18.93;14.60;;;24.40;1.00;;;;;;5000458;28;20224;-51
2021/09/08 10:34:16;;;;;;;26.27;15.67;;;24.40;1.00;;;;;;5001915;28;21126;-51
2021/09/08 10:36:44;;;;;;;20.97;14.63;;;24.50;1.00;;;;;;4995271;28;20229;-51
2021/09/08 10:39:16;;;;;;;21.10;14.17;;;24.60;1.00;;;;;;5003176;28;20291;-51
2021/09/08 10:41:51;;;;;;;22.93;15.50;;;24.90;1.00;;;;;;5005059;28;20302;-51
2021/09/08 10:44:38;;;;;;;21.20;13.33;;;24.70;1.00;;;;;;4995818;28;20201;-51
2021/09/08 10:47:05;;;;;;;17.57;13.13;;;24.70;1.00;;;;;;4991478;28;20252;-52
2021/09/08 10:49:41;;;;;;;19.07;13.53;;;24.80;1.00;;;;;;5001788;28;20372;-51
2021/09/08 10:52:14;;;;;;;25.33;15.67;;;24.90;1.00;;;;;;4993273;28;20357;-51
2021/09/08 10:54:56;;;;;;;25.37;14.43;;;25.00;1.00;;;;;;4992175;28;20238;-52
2021/09/08 10:57:44;;;;;;;21.07;14.00;;;25.10;1.00;;;;;;4995389;28;20233;-51
2021/09/08 11:00:19;;;;;;;18.73;14.50;;;25.30;1.00;;;;;;4995463;28;20295;-51
2021/09/08 11:02:46;;;;;;;23.87;15.33;;;25.20;1.00;;;;;;4998966;28;20292;-52
2021/09/08 11:05:14;;;;;;;19.53;14.43;;;25.40;99.90;;;;;;5000474;28;20384;-52
2021/09/08 11:07:42;;;;;;;22.93;13.90;;;25.40;99.90;;;;;;4991370;28;20237;-52
2021/09/08 11:10:11;;;;;;;23.20;15.03;;;25.60;1.00;;;;;;4994721;28;20205;-51
2021/09/08 11:12:47;;;;;;;20.13;14.17;;;25.60;99.90;;;;;;4998782;28;20354;-51
2021/09/08 11:15:15;;;;;;;20.30;13.10;;;25.70;99.90;;;;;;5015662;28;20815;-52
2021/09/08 11:17:41;;;;;;;17.50;13.07;;;25.70;99.90;;;;;;5010633;28;20313;-51
2021/09/08 11:20:22;;;;;;;16.07;12.57;;;25.90;99.90;;;;;;4991362;28;20273;-52
2021/09/08 11:23:02;;;;;;;19.80;13.20;;;26.10;99.90;;;;;;5001882;28;20250;-51
2021/09/08 11:25:37;;;;;;;16.13;12.37;;;26.10;99.90;;;;;;4996185;28;20234;-51
2021/09/08 11:28:05;;;;;;;16.53;12.83;;;26.30;1.00;;;;;;4994531;28;20219;-52
2021/09/08 11:30:35;;;;;;;21.00;15.30;;;26.10;1.00;;;;;;4996616;28;20227;-52
2021/09/08 11:33:06;;;;;;;18.33;13.20;;;26.30;1.00;;;;;;4992583;28;20658;-52
2021/09/08 11:35:40;;;;;;;19.03;13.27;;;26.40;1.00;;;;;;5000716;28;20646;-51
2021/09/08 11:38:17;;;;;;;20.43;13.97;;;26.60;1.00;;;;;;4994719;28;20348;-52
2021/09/08 11:40:56;;;;;;;16.00;12.83;;;26.60;1.00;;;;;;4994532;28;20291;-52
2021/09/08 11:43:37;;;;;;;16.67;12.93;;;26.90;1.00;;;;;;5000162;28;20306;-52
2021/09/08 11:46:25;;;;;;;16.27;11.93;;;27.10;1.00;;;;;;4999659;28;20194;-52
2021/09/08 11:49:07;;;;;;;14.17;11.30;;;27.30;1.00;;;;;;5000582;28;20250;-52
2021/09/08 11:51:35;;;;;;;18.40;12.43;;;27.70;1.00;;;;;;4996225;28;20229;-52
2021/09/08 11:54:04;;;;;;;15.63;12.40;;;27.70;1.00;;;;;;5000045;28;20285;-52
2021/09/08 11:56:32;;;;;;;12.52;10.45;;;27.90;1.00;;;;;;4998565;28;20216;-52
2021/09/08 11:59:03;;;;;;;14.85;11.57;;;28.30;1.00;;;;;;4998677;28;20224;-52
2021/09/08 12:01:35;;;;;;;13.93;10.48;;;28.10;99.90;;;;;;5001238;28;20693;-50
2021/09/08 12:04:03;;;;;;;14.02;10.50;;;28.10;99.90;;;;;;5001107;28;20201;-49
2021/09/08 12:06:33;;;;;;;17.15;11.52;;;28.60;1.00;;;;;;5001121;28;20834;-50
2021/09/08 12:09:11;;;;;;;15.60;11.65;;;28.60;1.00;;;;;;4999580;28;20237;-52
2021/09/08 12:11:47;;;;;;;14.10;11.32;;;29.00;99.90;;;;;;4996166;28;20205;-49
2021/09/08 12:14:14;;;;;;;13.95;10.88;;;28.80;99.90;;;;;;5002767;28;20288;-50
2021/09/08 12:16:41;;;;;;;11.85;9.95;;;28.90;99.90;;;;;;4997569;28;20290;-50
2021/09/08 12:19:15;;;;;;;12.77;9.30;;;28.60;99.90;;;;;;4996751;28;20225;-50
2021/09/08 12:21:43;;;;;;;12.25;9.10;;;28.70;99.90;;;;;;4996129;28;20276;-50
2021/09/08 12:24:28;;;;;;;12.63;8.52;;;28.60;99.90;;;;;;4995410;28;20197;-51
2021/09/08 12:26:56;;;;;;;13.25;8.52;;;29.30;99.90;;;;;;4997491;28;20221;-50
2021/09/08 12:29:25;;;;;;;11.50;9.43;;;29.30;99.90;;;;;;4994769;28;20775;-50
2021/09/08 12:32:02;;;;;;;12.65;8.88;;;29.50;99.90;;;;;;4992516;28;20713;-50
2021/09/08 12:34:51;;;;;;;11.75;8.32;;;29.70;99.90;;;;;;4997238;28;20630;-51
2021/09/08 12:37:21;;;;;;;9.02;7.93;;;30.00;34.90;;;;;;4994362;28;20251;-51
2021/09/08 12:39:51;;;;;;;9.60;7.68;;;29.90;19.50;;;;;;5000798;28;20774;-51
2021/09/08 12:42:24;;;;;;;10.68;7.60;;;30.00;99.90;;;;;;4995367;28;20331;-51